sensor_id;sensor_type;location;lat;lon;timestamp;temperature;humidity
55313;DHT22;46892;45.668;11.756;2023-05-29T00:01:51;19.30;65.30
55313;DHT22;46892;45.668;11.756;2023-05-29T00:04:17;19.20;65.80
55313;DHT22;46892;45.668;11.756;2023-05-29T00:06:43;19.10;66.10
55313;DHT22;46892;45.668;11.756;2023-05-29T00:09:09;19.00;66.10
55313;DHT22;46892;45.668;11.756;2023-05-29T00:11:34;19.00;66.30
55313;DHT22;46892;45.668;11.756;2023-05-29T00:14:00;18.90;66.50
55313;DHT22;46892;45.668;11.756;2023-05-29T00:16:25;18.80;67.00
55313;DHT22;46892;45.668;11.756;2023-05-29T00:18:51;18.80;67.20
55313;DHT22;46892;45.668;11.756;2023-05-29T00:21:17;18.80;67.10
55313;DHT22;46892;45.668;11.756;2023-05-29T00:23:43;18.80;67.10
55313;DHT22;46892;45.668;11.756;2023-05-29T00:26:08;18.80;66.80
55313;DHT22;46892;45.668;11.756;2023-05-29T00:28:34;18.80;66.90
55313;DHT22;46892;45.668;11.756;2023-05-29T00:31:00;18.70;66.60
55313;DHT22;46892;45.668;11.756;2023-05-29T00:33:26;18.70;66.40
55313;DHT22;46892;45.668;11.756;2023-05-29T00:35:51;18.80;66.20
55313;DHT22;46892;45.668;11.756;2023-05-29T00:38:17;18.80;66.20
55313;DHT22;46892;45.668;11.756;2023-05-29T00:40:42;18.80;66.30
55313;DHT22;46892;45.668;11.756;2023-05-29T00:43:08;18.80;66.20
55313;DHT22;46892;45.668;11.756;2023-05-29T00:45:33;18.80;66.00
55313;DHT22;46892;45.668;11.756;2023-05-29T00:48:04;18.80;65.80
55313;DHT22;46892;45.668;11.756;2023-05-29T00:50:30;18.80;66.10
55313;DHT22;46892;45.668;11.756;2023-05-29T00:52:57;18.80;66.80
55313;DHT22;46892;45.668;11.756;2023-05-29T00:55:22;18.70;66.90
55313;DHT22;46892;45.668;11.756;2023-05-29T00:57:49;18.60;66.60
55313;DHT22;46892;45.668;11.756;2023-05-29T01:00:14;18.70;66.60
55313;DHT22;46892;45.668;11.756;2023-05-29T01:02:41;18.70;66.10
55313;DHT22;46892;45.668;11.756;2023-05-29T01:05:13;18.70;66.30
55313;DHT22;46892;45.668;11.756;2023-05-29T01:07:38;18.60;66.20
55313;DHT22;46892;45.668;11.756;2023-05-29T01:10:07;18.50;66.50
55313;DHT22;46892;45.668;11.756;2023-05-29T01:12:36;18.50;67.40
55313;DHT22;46892;45.668;11.756;2023-05-29T01:25:29;18.30;66.90
55313;DHT22;46892;45.668;11.756;2023-05-29T01:28:00;18.40;66.90
55313;DHT22;46892;45.668;11.756;2023-05-29T01:30:27;18.40;66.90
55313;DHT22;46892;45.668;11.756;2023-05-29T01:32:53;18.40;67.00
55313;DHT22;46892;45.668;11.756;2023-05-29T01:35:19;18.30;66.90
55313;DHT22;46892;45.668;11.756;2023-05-29T01:37:44;18.40;66.80
55313;DHT22;46892;45.668;11.756;2023-05-29T01:40:10;18.50;67.00
55313;DHT22;46892;45.668;11.756;2023-05-29T01:42:36;18.60;66.10
55313;DHT22;46892;45.668;11.756;2023-05-29T01:45:02;18.60;66.70
55313;DHT22;46892;45.668;11.756;2023-05-29T01:47:30;18.60;66.50
55313;DHT22;46892;45.668;11.756;2023-05-29T01:49:56;18.60;66.60
55313;DHT22;46892;45.668;11.756;2023-05-29T01:52:22;18.70;66.30
55313;DHT22;46892;45.668;11.756;2023-05-29T01:54:47;18.70;66.30
55313;DHT22;46892;45.668;11.756;2023-05-29T01:57:13;18.60;66.70
55313;DHT22;46892;45.668;11.756;2023-05-29T01:59:38;18.70;66.30
55313;DHT22;46892;45.668;11.756;2023-05-29T02:02:06;18.70;66.70
55313;DHT22;46892;45.668;11.756;2023-05-29T02:04:31;18.60;67.00
55313;DHT22;46892;45.668;11.756;2023-05-29T02:06:57;18.60;67.10
55313;DHT22;46892;45.668;11.756;2023-05-29T02:09:23;18.50;67.60
55313;DHT22;46892;45.668;11.756;2023-05-29T02:11:49;18.50;67.40
55313;DHT22;46892;45.668;11.756;2023-05-29T02:14:14;18.60;67.50
55313;DHT22;46892;45.668;11.756;2023-05-29T02:16:40;18.60;67.90
55313;DHT22;46892;45.668;11.756;2023-05-29T02:19:06;18.50;67.60
55313;DHT22;46892;45.668;11.756;2023-05-29T02:21:33;18.50;68.00
55313;DHT22;46892;45.668;11.756;2023-05-29T02:23:58;18.50;68.10
55313;DHT22;46892;45.668;11.756;2023-05-29T02:26:24;18.50;68.30
55313;DHT22;46892;45.668;11.756;2023-05-29T02:28:50;18.50;68.30
55313;DHT22;46892;45.668;11.756;2023-05-29T02:31:15;18.50;67.80
55313;DHT22;46892;45.668;11.756;2023-05-29T02:33:41;18.50;68.00
55313;DHT22;46892;45.668;11.756;2023-05-29T02:36:07;18.50;67.90
55313;DHT22;46892;45.668;11.756;2023-05-29T02:38:35;18.40;68.00
55313;DHT22;46892;45.668;11.756;2023-05-29T02:41:01;18.40;68.20
55313;DHT22;46892;45.668;11.756;2023-05-29T02:43:27;18.40;68.40
55313;DHT22;46892;45.668;11.756;2023-05-29T02:45:52;18.30;68.00
55313;DHT22;46892;45.668;11.756;2023-05-29T02:48:18;18.40;68.20
55313;DHT22;46892;45.668;11.756;2023-05-29T02:50:43;18.30;68.10
55313;DHT22;46892;45.668;11.756;2023-05-29T02:53:09;18.30;67.90
55313;DHT22;46892;45.668;11.756;2023-05-29T02:55:35;18.30;68.00
55313;DHT22;46892;45.668;11.756;2023-05-29T02:58:01;18.30;68.10
55313;DHT22;46892;45.668;11.756;2023-05-29T03:00:26;18.40;68.20
55313;DHT22;46892;45.668;11.756;2023-05-29T03:02:54;18.30;68.00
55313;DHT22;46892;45.668;11.756;2023-05-29T03:05:20;18.40;67.90
55313;DHT22;46892;45.668;11.756;2023-05-29T03:07:46;18.50;67.60
55313;DHT22;46892;45.668;11.756;2023-05-29T03:10:11;18.60;67.60
55313;DHT22;46892;45.668;11.756;2023-05-29T03:12:37;18.50;67.60
55313;DHT22;46892;45.668;11.756;2023-05-29T03:15:03;18.60;67.60
55313;DHT22;46892;45.668;11.756;2023-05-29T03:17:29;18.70;67.10
55313;DHT22;46892;45.668;11.756;2023-05-29T03:19:54;18.80;67.00
55313;DHT22;46892;45.668;11.756;2023-05-29T03:22:20;18.70;67.10
55313;DHT22;46892;45.668;11.756;2023-05-29T03:24:46;18.70;67.40
55313;DHT22;46892;45.668;11.756;2023-05-29T03:27:12;18.80;66.80
55313;DHT22;46892;45.668;11.756;2023-05-29T03:29:37;18.80;66.80
55313;DHT22;46892;45.668;11.756;2023-05-29T03:32:03;18.80;67.10
55313;DHT22;46892;45.668;11.756;2023-05-29T03:34:28;18.70;67.00
55313;DHT22;46892;45.668;11.756;2023-05-29T03:36:54;18.70;67.20
55313;DHT22;46892;45.668;11.756;2023-05-29T03:39:20;18.80;66.70
55313;DHT22;46892;45.668;11.756;2023-05-29T03:41:45;18.70;67.00
55313;DHT22;46892;45.668;11.756;2023-05-29T03:44:11;18.70;67.60
55313;DHT22;46892;45.668;11.756;2023-05-29T03:46:36;18.70;67.20
55313;DHT22;46892;45.668;11.756;2023-05-29T03:49:02;18.60;67.20
55313;DHT22;46892;45.668;11.756;2023-05-29T03:51:27;18.60;68.10
55313;DHT22;46892;45.668;11.756;2023-05-29T03:53:53;18.60;67.60
55313;DHT22;46892;45.668;11.756;2023-05-29T03:56:18;18.50;67.20
55313;DHT22;46892;45.668;11.756;2023-05-29T03:58:44;18.50;67.50
55313;DHT22;46892;45.668;11.756;2023-05-29T04:01:10;18.60;67.50
55313;DHT22;46892;45.668;11.756;2023-05-29T04:03:36;18.70;67.00
55313;DHT22;46892;45.668;11.756;2023-05-29T04:06:03;18.70;66.90
55313;DHT22;46892;45.668;11.756;2023-05-29T04:08:28;18.70;66.80
55313;DHT22;46892;45.668;11.756;2023-05-29T04:10:54;18.70;66.80
55313;DHT22;46892;45.668;11.756;2023-05-29T04:13:20;18.70;66.70
55313;DHT22;46892;45.668;11.756;2023-05-29T04:15:46;18.70;66.60
55313;DHT22;46892;45.668;11.756;2023-05-29T04:18:11;18.80;66.80
55313;DHT22;46892;45.668;11.756;2023-05-29T04:20:37;18.90;66.40
55313;DHT22;46892;45.668;11.756;2023-05-29T04:23:03;18.80;66.50
55313;DHT22;46892;45.668;11.756;2023-05-29T04:25:28;18.80;66.70
55313;DHT22;46892;45.668;11.756;2023-05-29T04:27:54;18.90;67.10
55313;DHT22;46892;45.668;11.756;2023-05-29T04:30:19;18.80;67.20
55313;DHT22;46892;45.668;11.756;2023-05-29T04:32:45;18.80;67.20
55313;DHT22;46892;45.668;11.756;2023-05-29T04:35:12;18.80;67.20
55313;DHT22;46892;45.668;11.756;2023-05-29T04:37:38;18.80;67.20
55313;DHT22;46892;45.668;11.756;2023-05-29T04:42:37;19.00;66.90
55313;DHT22;46892;45.668;11.756;2023-05-29T04:45:03;18.90;67.20
55313;DHT22;46892;45.668;11.756;2023-05-29T04:47:30;19.00;67.40
55313;DHT22;46892;45.668;11.756;2023-05-29T04:49:58;19.00;68.10
55313;DHT22;46892;45.668;11.756;2023-05-29T04:52:25;19.20;67.00
55313;DHT22;46892;45.668;11.756;2023-05-29T04:54:50;19.20;67.10
55313;DHT22;46892;45.668;11.756;2023-05-29T04:57:16;19.20;67.20
55313;DHT22;46892;45.668;11.756;2023-05-29T04:59:41;19.20;67.30
55313;DHT22;46892;45.668;11.756;2023-05-29T05:02:07;19.30;67.20
55313;DHT22;46892;45.668;11.756;2023-05-29T05:04:32;19.30;67.30
55313;DHT22;46892;45.668;11.756;2023-05-29T05:06:58;19.40;67.10
55313;DHT22;46892;45.668;11.756;2023-05-29T05:09:24;19.50;67.10
55313;DHT22;46892;45.668;11.756;2023-05-29T05:11:49;19.60;66.00
55313;DHT22;46892;45.668;11.756;2023-05-29T05:14:15;19.70;66.30
55313;DHT22;46892;45.668;11.756;2023-05-29T05:16:40;19.80;65.60
55313;DHT22;46892;45.668;11.756;2023-05-29T05:19:06;19.80;66.10
55313;DHT22;46892;45.668;11.756;2023-05-29T05:21:32;19.90;65.60
55313;DHT22;46892;45.668;11.756;2023-05-29T05:23:58;19.90;66.20
55313;DHT22;46892;45.668;11.756;2023-05-29T05:26:23;20.00;66.00
55313;DHT22;46892;45.668;11.756;2023-05-29T05:28:50;20.10;66.00
55313;DHT22;46892;45.668;11.756;2023-05-29T05:31:16;20.20;66.10
55313;DHT22;46892;45.668;11.756;2023-05-29T05:33:42;20.30;64.90
55313;DHT22;46892;45.668;11.756;2023-05-29T05:36:07;20.30;65.60
55313;DHT22;46892;45.668;11.756;2023-05-29T05:38:33;20.20;65.50
55313;DHT22;46892;45.668;11.756;2023-05-29T05:40:58;20.30;65.50
55313;DHT22;46892;45.668;11.756;2023-05-29T05:43:24;20.30;65.00
55313;DHT22;46892;45.668;11.756;2023-05-29T05:45:52;20.40;64.80
55313;DHT22;46892;45.668;11.756;2023-05-29T05:48:18;20.50;64.60
55313;DHT22;46892;45.668;11.756;2023-05-29T05:50:43;20.70;64.80
55313;DHT22;46892;45.668;11.756;2023-05-29T05:53:09;20.80;65.40
55313;DHT22;46892;45.668;11.756;2023-05-29T05:55:34;20.80;63.40
55313;DHT22;46892;45.668;11.756;2023-05-29T05:58:00;20.90;64.10
55313;DHT22;46892;45.668;11.756;2023-05-29T06:00:26;21.00;64.20
55313;DHT22;46892;45.668;11.756;2023-05-29T06:02:51;21.10;64.00
55313;DHT22;46892;45.668;11.756;2023-05-29T06:05:17;21.20;63.00
55313;DHT22;46892;45.668;11.756;2023-05-29T06:07:43;21.30;63.50
55313;DHT22;46892;45.668;11.756;2023-05-29T06:10:09;21.50;62.80
55313;DHT22;46892;45.668;11.756;2023-05-29T06:12:34;21.60;62.10
55313;DHT22;46892;45.668;11.756;2023-05-29T06:15:00;21.60;61.90
55313;DHT22;46892;45.668;11.756;2023-05-29T06:17:25;21.70;61.50
55313;DHT22;46892;45.668;11.756;2023-05-29T06:19:52;21.80;61.60
55313;DHT22;46892;45.668;11.756;2023-05-29T06:22:18;21.90;61.00
55313;DHT22;46892;45.668;11.756;2023-05-29T06:24:43;22.00;60.40
55313;DHT22;46892;45.668;11.756;2023-05-29T06:27:09;22.00;60.50
55313;DHT22;46892;45.668;11.756;2023-05-29T06:29:35;22.10;61.30
55313;DHT22;46892;45.668;11.756;2023-05-29T06:32:00;22.20;60.20
55313;DHT22;46892;45.668;11.756;2023-05-29T06:34:26;22.30;60.90
55313;DHT22;46892;45.668;11.756;2023-05-29T06:36:52;22.40;60.20
55313;DHT22;46892;45.668;11.756;2023-05-29T06:39:17;22.50;59.90
55313;DHT22;46892;45.668;11.756;2023-05-29T06:41:46;22.60;60.80
55313;DHT22;46892;45.668;11.756;2023-05-29T06:44:11;22.70;60.00
55313;DHT22;46892;45.668;11.756;2023-05-29T06:46:37;22.80;59.00
55313;DHT22;46892;45.668;11.756;2023-05-29T06:49:02;22.90;59.30
55313;DHT22;46892;45.668;11.756;2023-05-29T06:51:28;23.00;59.60
55313;DHT22;46892;45.668;11.756;2023-05-29T06:53:54;23.10;58.00
55313;DHT22;46892;45.668;11.756;2023-05-29T06:56:20;23.20;57.20
55313;DHT22;46892;45.668;11.756;2023-05-29T06:58:46;23.20;55.80
55313;DHT22;46892;45.668;11.756;2023-05-29T07:01:11;23.20;56.20
55313;DHT22;46892;45.668;11.756;2023-05-29T07:03:37;23.30;55.60
55313;DHT22;46892;45.668;11.756;2023-05-29T07:06:03;23.30;54.40
55313;DHT22;46892;45.668;11.756;2023-05-29T07:08:29;23.30;55.30
55313;DHT22;46892;45.668;11.756;2023-05-29T07:10:54;23.40;55.80
55313;DHT22;46892;45.668;11.756;2023-05-29T07:13:20;23.40;54.40
55313;DHT22;46892;45.668;11.756;2023-05-29T07:15:46;23.50;55.60
55313;DHT22;46892;45.668;11.756;2023-05-29T07:18:13;23.60;55.50
55313;DHT22;46892;45.668;11.756;2023-05-29T07:20:38;23.60;56.50
55313;DHT22;46892;45.668;11.756;2023-05-29T07:23:04;23.70;55.80
55313;DHT22;46892;45.668;11.756;2023-05-29T07:25:30;23.90;53.90
55313;DHT22;46892;45.668;11.756;2023-05-29T07:27:56;24.10;52.90
55313;DHT22;46892;45.668;11.756;2023-05-29T07:30:22;24.20;57.10
55313;DHT22;46892;45.668;11.756;2023-05-29T07:32:47;24.30;55.60
55313;DHT22;46892;45.668;11.756;2023-05-29T07:35:13;24.50;53.00
55313;DHT22;46892;45.668;11.756;2023-05-29T07:37:38;24.60;53.80
55313;DHT22;46892;45.668;11.756;2023-05-29T07:40:04;24.60;54.70
55313;DHT22;46892;45.668;11.756;2023-05-29T07:42:31;24.60;54.10
55313;DHT22;46892;45.668;11.756;2023-05-29T07:44:57;24.70;52.00
55313;DHT22;46892;45.668;11.756;2023-05-29T07:47:23;24.60;51.40
55313;DHT22;46892;45.668;11.756;2023-05-29T07:49:49;24.50;51.90
55313;DHT22;46892;45.668;11.756;2023-05-29T07:52:15;24.50;53.20
55313;DHT22;46892;45.668;11.756;2023-05-29T07:54:41;24.50;55.60
55313;DHT22;46892;45.668;11.756;2023-05-29T07:57:06;24.60;52.10
55313;DHT22;46892;45.668;11.756;2023-05-29T07:59:40;24.60;53.40
55313;DHT22;46892;45.668;11.756;2023-05-29T08:02:06;24.70;54.10
55313;DHT22;46892;45.668;11.756;2023-05-29T08:04:32;24.70;53.90
55313;DHT22;46892;45.668;11.756;2023-05-29T08:06:59;24.90;54.30
55313;DHT22;46892;45.668;11.756;2023-05-29T08:09:24;24.90;53.50
55313;DHT22;46892;45.668;11.756;2023-05-29T08:11:50;24.90;46.10
55313;DHT22;46892;45.668;11.756;2023-05-29T08:14:16;24.90;46.50
55313;DHT22;46892;45.668;11.756;2023-05-29T08:16:42;25.10;48.70
55313;DHT22;46892;45.668;11.756;2023-05-29T08:19:07;25.10;44.00
55313;DHT22;46892;45.668;11.756;2023-05-29T08:21:33;25.10;45.90
55313;DHT22;46892;45.668;11.756;2023-05-29T08:23:59;25.10;47.00
55313;DHT22;46892;45.668;11.756;2023-05-29T08:26:25;25.10;46.70
55313;DHT22;46892;45.668;11.756;2023-05-29T08:28:51;25.20;46.20
55313;DHT22;46892;45.668;11.756;2023-05-29T08:31:17;25.20;49.30
55313;DHT22;46892;45.668;11.756;2023-05-29T08:33:42;25.20;49.50
55313;DHT22;46892;45.668;11.756;2023-05-29T08:36:08;25.40;48.20
55313;DHT22;46892;45.668;11.756;2023-05-29T08:38:34;25.40;46.70
55313;DHT22;46892;45.668;11.756;2023-05-29T08:40:59;25.50;48.40
55313;DHT22;46892;45.668;11.756;2023-05-29T08:43:25;25.50;47.70
55313;DHT22;46892;45.668;11.756;2023-05-29T08:45:53;25.40;48.70
55313;DHT22;46892;45.668;11.756;2023-05-29T08:48:22;25.40;50.20
55313;DHT22;46892;45.668;11.756;2023-05-29T08:50:48;25.50;50.30
55313;DHT22;46892;45.668;11.756;2023-05-29T08:53:14;25.60;47.10
55313;DHT22;46892;45.668;11.756;2023-05-29T08:55:40;25.60;47.50
55313;DHT22;46892;45.668;11.756;2023-05-29T08:58:06;25.60;47.00
55313;DHT22;46892;45.668;11.756;2023-05-29T09:00:32;25.60;47.00
55313;DHT22;46892;45.668;11.756;2023-05-29T09:02:58;25.60;46.90
55313;DHT22;46892;45.668;11.756;2023-05-29T09:05:25;25.70;46.70
55313;DHT22;46892;45.668;11.756;2023-05-29T09:07:53;25.70;44.70
55313;DHT22;46892;45.668;11.756;2023-05-29T09:10:19;25.70;48.00
55313;DHT22;46892;45.668;11.756;2023-05-29T09:12:45;25.80;47.70
55313;DHT22;46892;45.668;11.756;2023-05-29T09:17:44;25.80;47.80
55313;DHT22;46892;45.668;11.756;2023-05-29T09:20:15;25.80;48.00
55313;DHT22;46892;45.668;11.756;2023-05-29T09:22:57;25.80;48.00
55313;DHT22;46892;45.668;11.756;2023-05-29T09:25:23;25.90;46.00
55313;DHT22;46892;45.668;11.756;2023-05-29T09:27:51;25.80;45.00
55313;DHT22;46892;45.668;11.756;2023-05-29T09:32:58;25.90;47.40
55313;DHT22;46892;45.668;11.756;2023-05-29T09:35:24;25.90;46.10
55313;DHT22;46892;45.668;11.756;2023-05-29T09:37:49;25.90;47.30
55313;DHT22;46892;45.668;11.756;2023-05-29T09:40:15;25.90;46.10
55313;DHT22;46892;45.668;11.756;2023-05-29T09:42:41;25.90;47.50
55313;DHT22;46892;45.668;11.756;2023-05-29T09:45:06;25.80;45.50
55313;DHT22;46892;45.668;11.756;2023-05-29T09:47:34;25.80;48.30
55313;DHT22;46892;45.668;11.756;2023-05-29T09:50:00;25.80;45.90
55313;DHT22;46892;45.668;11.756;2023-05-29T09:52:26;25.80;46.90
55313;DHT22;46892;45.668;11.756;2023-05-29T09:54:55;25.80;46.30
55313;DHT22;46892;45.668;11.756;2023-05-29T09:57:22;25.80;45.20
55313;DHT22;46892;45.668;11.756;2023-05-29T09:59:49;25.80;46.10
55313;DHT22;46892;45.668;11.756;2023-05-29T10:02:17;25.80;47.10
55313;DHT22;46892;45.668;11.756;2023-05-29T10:04:43;25.90;46.70
55313;DHT22;46892;45.668;11.756;2023-05-29T10:07:10;26.00;46.70
55313;DHT22;46892;45.668;11.756;2023-05-29T10:09:44;25.90;44.60
55313;DHT22;46892;45.668;11.756;2023-05-29T10:12:11;26.00;46.80
55313;DHT22;46892;45.668;11.756;2023-05-29T10:14:36;26.00;44.70
55313;DHT22;46892;45.668;11.756;2023-05-29T10:17:03;25.90;43.40
55313;DHT22;46892;45.668;11.756;2023-05-29T10:19:32;25.80;43.80
55313;DHT22;46892;45.668;11.756;2023-05-29T10:21:58;25.60;44.90
55313;DHT22;46892;45.668;11.756;2023-05-29T10:24:26;25.60;45.70
55313;DHT22;46892;45.668;11.756;2023-05-29T10:26:52;25.60;45.40
55313;DHT22;46892;45.668;11.756;2023-05-29T10:34:29;25.80;43.80
55313;DHT22;46892;45.668;11.756;2023-05-29T10:37:01;25.70;42.10
55313;DHT22;46892;45.668;11.756;2023-05-29T10:39:29;25.80;43.30
55313;DHT22;46892;45.668;11.756;2023-05-29T10:41:55;25.70;41.60
55313;DHT22;46892;45.668;11.756;2023-05-29T10:47:02;25.70;42.80
55313;DHT22;46892;45.668;11.756;2023-05-29T10:49:28;25.70;41.40
55313;DHT22;46892;45.668;11.756;2023-05-29T10:51:54;25.80;45.00
55313;DHT22;46892;45.668;11.756;2023-05-29T10:54:22;25.80;43.20
55313;DHT22;46892;45.668;11.756;2023-05-29T10:56:52;25.90;43.20
55313;DHT22;46892;45.668;11.756;2023-05-29T10:59:18;25.90;42.70
55313;DHT22;46892;45.668;11.756;2023-05-29T11:01:44;25.90;43.20
55313;DHT22;46892;45.668;11.756;2023-05-29T11:06:41;25.80;43.00
55313;DHT22;46892;45.668;11.756;2023-05-29T11:14:44;26.00;45.60
55313;DHT22;46892;45.668;11.756;2023-05-29T11:17:12;26.00;46.40
55313;DHT22;46892;45.668;11.756;2023-05-29T11:19:54;26.00;44.00
55313;DHT22;46892;45.668;11.756;2023-05-29T11:22:21;26.10;43.20
55313;DHT22;46892;45.668;11.756;2023-05-29T11:24:48;26.20;44.00
55313;DHT22;46892;45.668;11.756;2023-05-29T11:27:16;26.20;41.30
55313;DHT22;46892;45.668;11.756;2023-05-29T11:29:42;26.10;40.90
55313;DHT22;46892;45.668;11.756;2023-05-29T11:32:10;26.10;44.10
55313;DHT22;46892;45.668;11.756;2023-05-29T11:34:39;26.10;42.50
55313;DHT22;46892;45.668;11.756;2023-05-29T11:37:04;26.00;42.80
55313;DHT22;46892;45.668;11.756;2023-05-29T11:39:30;26.00;42.60
55313;DHT22;46892;45.668;11.756;2023-05-29T11:41:56;26.00;44.60
55313;DHT22;46892;45.668;11.756;2023-05-29T11:44:25;26.20;42.20
55313;DHT22;46892;45.668;11.756;2023-05-29T11:49:27;26.20;41.50
55313;DHT22;46892;45.668;11.756;2023-05-29T11:51:53;26.20;40.90
55313;DHT22;46892;45.668;11.756;2023-05-29T11:54:19;26.30;43.90
55313;DHT22;46892;45.668;11.756;2023-05-29T11:56:45;26.30;41.70
55313;DHT22;46892;45.668;11.756;2023-05-29T11:59:12;26.30;41.60
55313;DHT22;46892;45.668;11.756;2023-05-29T12:01:38;26.50;44.70
55313;DHT22;46892;45.668;11.756;2023-05-29T12:04:13;26.60;44.10
55313;DHT22;46892;45.668;11.756;2023-05-29T12:06:38;26.60;42.30
55313;DHT22;46892;45.668;11.756;2023-05-29T12:09:04;26.70;44.40
55313;DHT22;46892;45.668;11.756;2023-05-29T12:11:30;26.70;45.40
55313;DHT22;46892;45.668;11.756;2023-05-29T12:13:59;26.70;44.30
55313;DHT22;46892;45.668;11.756;2023-05-29T12:16:26;26.60;43.80
55313;DHT22;46892;45.668;11.756;2023-05-29T12:18:53;26.60;42.60
55313;DHT22;46892;45.668;11.756;2023-05-29T12:21:19;26.40;41.40
55313;DHT22;46892;45.668;11.756;2023-05-29T12:23:45;26.50;40.50
55313;DHT22;46892;45.668;11.756;2023-05-29T12:26:11;26.40;40.40
55313;DHT22;46892;45.668;11.756;2023-05-29T12:28:42;26.50;42.00
55313;DHT22;46892;45.668;11.756;2023-05-29T12:31:07;26.50;42.80
55313;DHT22;46892;45.668;11.756;2023-05-29T12:33:33;26.50;40.80
55313;DHT22;46892;45.668;11.756;2023-05-29T12:36:05;26.50;45.50
55313;DHT22;46892;45.668;11.756;2023-05-29T12:38:45;26.50;43.90
55313;DHT22;46892;45.668;11.756;2023-05-29T12:41:21;26.50;46.10
55313;DHT22;46892;45.668;11.756;2023-05-29T12:43:47;26.70;46.80
55313;DHT22;46892;45.668;11.756;2023-05-29T12:46:12;26.70;46.60
55313;DHT22;46892;45.668;11.756;2023-05-29T12:48:38;26.90;48.70
55313;DHT22;46892;45.668;11.756;2023-05-29T12:51:04;27.00;49.20
55313;DHT22;46892;45.668;11.756;2023-05-29T12:53:30;27.00;43.90
55313;DHT22;46892;45.668;11.756;2023-05-29T12:55:56;27.10;44.70
55313;DHT22;46892;45.668;11.756;2023-05-29T12:58:22;27.10;42.80
55313;DHT22;46892;45.668;11.756;2023-05-29T13:00:52;27.10;43.60
55313;DHT22;46892;45.668;11.756;2023-05-29T13:03:21;27.10;45.90
55313;DHT22;46892;45.668;11.756;2023-05-29T13:05:51;27.00;43.40
55313;DHT22;46892;45.668;11.756;2023-05-29T13:08:18;27.00;43.40
55313;DHT22;46892;45.668;11.756;2023-05-29T13:10:44;27.00;41.60
55313;DHT22;46892;45.668;11.756;2023-05-29T13:13:10;26.90;40.80
55313;DHT22;46892;45.668;11.756;2023-05-29T13:15:37;26.90;42.30
55313;DHT22;46892;45.668;11.756;2023-05-29T13:18:03;26.80;40.80
55313;DHT22;46892;45.668;11.756;2023-05-29T13:20:29;26.80;42.20
55313;DHT22;46892;45.668;11.756;2023-05-29T13:22:55;26.80;42.40
55313;DHT22;46892;45.668;11.756;2023-05-29T13:25:21;26.90;39.70
55313;DHT22;46892;45.668;11.756;2023-05-29T13:27:49;26.90;41.50
55313;DHT22;46892;45.668;11.756;2023-05-29T13:30:15;26.90;40.90
55313;DHT22;46892;45.668;11.756;2023-05-29T13:32:41;27.00;42.90
55313;DHT22;46892;45.668;11.756;2023-05-29T13:35:07;27.00;43.80
55313;DHT22;46892;45.668;11.756;2023-05-29T13:37:33;27.10;42.00
55313;DHT22;46892;45.668;11.756;2023-05-29T13:39:59;27.00;41.70
55313;DHT22;46892;45.668;11.756;2023-05-29T13:42:25;27.00;41.20
55313;DHT22;46892;45.668;11.756;2023-05-29T13:44:50;27.10;41.20
55313;DHT22;46892;45.668;11.756;2023-05-29T13:47:16;27.00;39.50
55313;DHT22;46892;45.668;11.756;2023-05-29T13:49:42;27.10;47.00
55313;DHT22;46892;45.668;11.756;2023-05-29T13:52:08;27.20;44.60
55313;DHT22;46892;45.668;11.756;2023-05-29T13:54:33;27.20;47.30
55313;DHT22;46892;45.668;11.756;2023-05-29T13:57:02;27.20;42.40
55313;DHT22;46892;45.668;11.756;2023-05-29T13:59:29;27.20;42.40
55313;DHT22;46892;45.668;11.756;2023-05-29T14:01:54;27.20;44.40
55313;DHT22;46892;45.668;11.756;2023-05-29T14:04:20;27.30;43.60
55313;DHT22;46892;45.668;11.756;2023-05-29T14:06:45;27.40;45.40
55313;DHT22;46892;45.668;11.756;2023-05-29T14:09:11;27.30;43.40
55313;DHT22;46892;45.668;11.756;2023-05-29T14:11:37;27.30;40.20
55313;DHT22;46892;45.668;11.756;2023-05-29T14:14:03;27.30;43.40
55313;DHT22;46892;45.668;11.756;2023-05-29T14:16:29;27.30;43.40
55313;DHT22;46892;45.668;11.756;2023-05-29T14:18:54;27.30;41.00
55313;DHT22;46892;45.668;11.756;2023-05-29T14:21:20;27.30;40.00
55313;DHT22;46892;45.668;11.756;2023-05-29T14:23:46;27.20;40.60
55313;DHT22;46892;45.668;11.756;2023-05-29T14:26:12;27.20;42.50
55313;DHT22;46892;45.668;11.756;2023-05-29T14:28:38;27.20;44.10
55313;DHT22;46892;45.668;11.756;2023-05-29T14:31:06;27.20;44.20
55313;DHT22;46892;45.668;11.756;2023-05-29T14:33:32;27.20;40.50
55313;DHT22;46892;45.668;11.756;2023-05-29T14:35:58;27.10;41.20
55313;DHT22;46892;45.668;11.756;2023-05-29T14:38:24;27.00;45.70
55313;DHT22;46892;45.668;11.756;2023-05-29T14:40:50;26.90;44.70
55313;DHT22;46892;45.668;11.756;2023-05-29T14:43:16;26.70;44.00
55313;DHT22;46892;45.668;11.756;2023-05-29T14:45:41;26.60;45.50
55313;DHT22;46892;45.668;11.756;2023-05-29T14:48:07;26.60;45.50
55313;DHT22;46892;45.668;11.756;2023-05-29T14:50:33;26.50;42.90
55313;DHT22;46892;45.668;11.756;2023-05-29T14:52:58;26.40;42.40
55313;DHT22;46892;45.668;11.756;2023-05-29T14:55:24;26.40;43.50
55313;DHT22;46892;45.668;11.756;2023-05-29T14:57:49;26.40;44.50
55313;DHT22;46892;45.668;11.756;2023-05-29T15:00:15;26.40;44.00
55313;DHT22;46892;45.668;11.756;2023-05-29T15:02:41;26.10;46.20
55313;DHT22;46892;45.668;11.756;2023-05-29T15:05:06;25.80;45.90
55313;DHT22;46892;45.668;11.756;2023-05-29T15:07:33;25.50;46.70
55313;DHT22;46892;45.668;11.756;2023-05-29T15:10:02;25.20;47.40
55313;DHT22;46892;45.668;11.756;2023-05-29T15:12:27;24.90;47.80
55313;DHT22;46892;45.668;11.756;2023-05-29T15:14:53;24.80;49.40
55313;DHT22;46892;45.668;11.756;2023-05-29T15:17:18;24.70;49.10
55313;DHT22;46892;45.668;11.756;2023-05-29T15:19:44;24.70;49.50
55313;DHT22;46892;45.668;11.756;2023-05-29T15:22:10;24.60;49.60
55313;DHT22;46892;45.668;11.756;2023-05-29T15:24:35;24.50;50.00
55313;DHT22;46892;45.668;11.756;2023-05-29T15:27:01;24.50;51.40
55313;DHT22;46892;45.668;11.756;2023-05-29T15:29:32;24.50;50.30
55313;DHT22;46892;45.668;11.756;2023-05-29T15:31:58;24.50;50.60
55313;DHT22;46892;45.668;11.756;2023-05-29T15:34:23;24.40;50.00
55313;DHT22;46892;45.668;11.756;2023-05-29T15:36:49;24.50;50.60
55313;DHT22;46892;45.668;11.756;2023-05-29T15:39:14;24.40;51.80
55313;DHT22;46892;45.668;11.756;2023-05-29T15:41:41;24.40;51.10
55313;DHT22;46892;45.668;11.756;2023-05-29T15:44:06;24.30;51.70
55313;DHT22;46892;45.668;11.756;2023-05-29T15:46:32;24.40;52.00